Time;durP1;ratioP1;P1;durP2;ratioP2;P2;SDS_P1;SDS_P2;PMS_P1;PMS_P2;Temp;Humidity;BMP_temperature;BMP_pressure;BME280_temperature;BME280_humidity;BME280_pressure;Samples;Min_cycle;Max_cycle;Signal;HPM_P1;HPM_P2
2023/04/20 00:02:14;;;;;;;2.67;1.75;;;13.50;68.70;;;;;;10318752;28;20031;-88
2023/04/20 00:07:15;;;;;;;3.30;1.70;;;13.60;68.70;;;;;;10315897;28;20077;-89
2023/04/20 00:12:16;;;;;;;2.35;1.70;;;12.80;68.40;;;;;;10311652;28;20046;-88
2023/04/20 00:17:17;;;;;;;2.92;1.75;;;13.70;68.90;;;;;;10314588;28;20109;-88
2023/04/20 00:22:18;;;;;;;3.00;1.73;;;13.40;68.90;;;;;;10312969;28;20027;-89
2023/04/20 00:27:19;;;;;;;3.65;2.38;;;12.70;68.60;;;;;;10322524;28;20039;-88
2023/04/20 00:32:24;;;;;;;3.25;1.77;;;12.70;68.60;;;;;;10321789;28;20057;-88
2023/04/20 00:37:25;;;;;;;2.67;1.77;;;13.20;69.00;;;;;;10317606;28;20145;-88
2023/04/20 00:42:26;;;;;;;2.00;1.40;;;13.30;69.00;;;;;;10319384;28;20066;-88
2023/04/20 00:47:27;;;;;;;2.78;1.60;;;13.00;68.90;;;;;;10321698;28;20105;-88
2023/04/20 00:52:27;;;;;;;2.22;1.42;;;13.40;69.20;;;;;;10319846;28;20022;-89
2023/04/20 00:57:29;;;;;;;3.05;1.63;;;12.60;68.90;;;;;;10320348;28;20022;-89
2023/04/20 01:02:30;;;;;;;2.88;1.60;;;13.00;69.10;;;;;;10322697;28;20054;-88
2023/04/20 01:07:31;;;;;;;2.40;1.45;;;12.50;69.00;;;;;;10321029;28;20617;-88
2023/04/20 01:12:32;;;;;;;2.30;1.65;;;13.20;69.40;;;;;;10322773;28;20029;-88
2023/04/20 01:17:36;;;;;;;2.50;1.70;;;13.50;69.80;;;;;;10306645;28;20033;-88
2023/04/20 01:22:48;;;;;;;3.72;1.58;;;12.50;69.20;;;;;;10322350;28;20030;-88
2023/04/20 01:27:49;;;;;;;2.25;1.65;;;13.00;69.60;;;;;;10322692;28;20071;-88
2023/04/20 01:32:49;;;;;;;2.90;2.08;;;12.70;69.50;;;;;;10313523;28;20047;-88
2023/04/20 01:37:50;;;;;;;4.35;1.63;;;12.40;69.40;;;;;;10319061;28;20060;-89
2023/04/20 01:42:51;;;;;;;3.28;1.70;;;12.40;69.40;;;;;;10317609;28;20092;-88
2023/04/20 01:47:51;;;;;;;4.30;1.63;;;13.30;70.00;;;;;;10304658;28;20081;-89
2023/04/20 01:52:52;;;;;;;2.35;1.52;;;12.90;69.90;;;;;;10304062;28;20039;-88
2023/04/20 01:57:53;;;;;;;3.25;1.58;;;12.30;69.60;;;;;;10319724;28;20109;-88
2023/04/20 02:02:53;;;;;;;2.50;1.70;;;12.30;69.70;;;;;;10320275;28;20022;-88
2023/04/20 02:07:54;;;;;;;3.13;1.60;;;12.30;69.80;;;;;;10305036;28;20043;-88
2023/04/20 02:12:55;;;;;;;2.63;1.60;;;13.10;70.30;;;;;;10294075;28;20036;-88
2023/04/20 02:17:56;;;;;;;1.77;1.25;;;12.20;69.90;;;;;;10288768;28;20666;-88
2023/04/20 02:22:56;;;;;;;2.60;1.30;;;12.20;70.00;;;;;;10275031;28;20112;-88
2023/04/20 02:27:57;;;;;;;2.22;1.50;;;12.80;70.50;;;;;;10295411;28;20085;-89
2023/04/20 02:32:58;;;;;;;2.03;1.50;;;12.20;70.20;;;;;;10294478;28;20018;-89
2023/04/20 02:37:59;;;;;;;2.90;1.73;;;12.20;70.30;;;;;;10290190;28;20660;-89
2023/04/20 02:43:00;;;;;;;3.13;1.30;;;12.20;70.40;;;;;;10289281;28;20047;-88
2023/04/20 02:48:00;;;;;;;2.28;1.30;;;12.70;70.70;;;;;;10303282;28;20153;-89
2023/04/20 02:53:01;;;;;;;3.03;1.40;;;12.80;70.90;;;;;;10316728;28;20517;-88
2023/04/20 02:58:02;;;;;;;1.73;1.15;;;12.10;70.60;;;;;;10286142;28;20022;-86
2023/04/20 03:03:02;;;;;;;1.83;1.20;;;12.10;71.30;;;;;;10287367;28;20037;-89
2023/04/20 03:08:05;;;;;;;3.53;1.42;;;12.10;70.80;;;;;;10294209;28;20088;-90
2023/04/20 03:13:06;;;;;;;1.48;1.25;;;12.10;71.00;;;;;;10314698;28;20030;-89
2023/04/20 03:18:07;;;;;;;4.53;1.63;;;13.10;71.60;;;;;;10315269;28;20034;-88
2023/04/20 03:23:08;;;;;;;3.10;1.33;;;13.20;71.80;;;;;;10304937;28;20398;-88
2023/04/20 03:28:08;;;;;;;1.88;1.30;;;12.00;71.20;;;;;;10320017;28;20494;-89
2023/04/20 03:33:09;;;;;;;1.90;1.20;;;13.20;72.00;;;;;;10315430;28;20069;-89
2023/04/20 03:38:09;;;;;;;3.63;1.83;;;12.00;71.50;;;;;;10313823;28;20042;-89
2023/04/20 03:43:11;;;;;;;1.33;1.05;;;12.80;72.30;;;;;;10295248;28;20680;-88
2023/04/20 03:48:11;;;;;;;1.45;1.17;;;12.90;72.50;;;;;;10299192;28;20034;-88
2023/04/20 03:53:12;;;;;;;2.40;1.40;;;12.80;72.70;;;;;;10314078;28;20414;-88
2023/04/20 03:58:13;;;;;;;2.17;1.20;;;13.10;73.20;;;;;;10316859;28;20030;-88
2023/04/20 04:03:13;;;;;;;1.98;1.00;;;11.90;73.10;;;;;;10324672;28;20022;-88
2023/04/20 04:08:14;;;;;;;1.25;1.08;;;11.90;73.10;;;;;;10322353;28;20034;-89
2023/04/20 04:13:15;;;;;;;1.17;1.00;;;11.90;73.20;;;;;;10306865;28;20038;-88
2023/04/20 04:18:15;;;;;;;1.50;0.98;;;11.90;73.30;;;;;;10303320;28;20034;-90
2023/04/20 04:23:16;;;;;;;1.50;1.00;;;12.20;73.50;;;;;;10322445;28;20057;-88
2023/04/20 04:28:17;;;;;;;1.83;1.05;;;11.90;73.50;;;;;;10319163;28;20034;-89
2023/04/20 04:33:17;;;;;;;2.85;1.35;;;13.00;74.30;;;;;;10322709;28;20082;-89
2023/04/20 04:38:18;;;;;;;2.17;1.00;;;11.90;74.00;;;;;;10316693;28;20238;-88
2023/04/20 04:43:19;;;;;;;1.92;0.80;;;12.80;74.70;;;;;;10319488;28;20038;-88
2023/04/20 04:48:20;;;;;;;3.55;1.20;;;11.90;74.30;;;;;;10319159;28;20038;-89
2023/04/20 04:53:20;;;;;;;1.23;0.90;;;11.90;74.50;;;;;;10328001;28;20486;-89
2023/04/20 04:58:21;;;;;;;1.67;1.05;;;11.90;74.60;;;;;;10321766;28;20034;-88
2023/04/20 05:03:21;;;;;;;2.92;1.48;;;11.80;74.70;;;;;;10322541;28;20022;-89
2023/04/20 05:08:25;;;;;;;1.70;1.17;;;12.40;75.40;;;;;;10300208;28;20027;-89
2023/04/20 05:13:34;;;;;;;2.25;1.00;;;11.80;75.20;;;;;;10314985;28;20481;-88
2023/04/20 05:18:34;;;;;;;1.67;1.02;;;11.80;75.60;;;;;;10310886;28;20039;-88
2023/04/20 05:23:35;;;;;;;1.80;1.10;;;13.00;76.10;;;;;;10318220;28;20629;-89
2023/04/20 05:28:36;;;;;;;2.42;1.08;;;12.20;75.80;;;;;;10318310;28;20026;-88
2023/04/20 05:33:36;;;;;;;1.65;1.23;;;11.80;75.60;;;;;;10302652;28;20511;-89
2023/04/20 05:38:38;;;;;;;2.42;1.15;;;12.90;76.40;;;;;;10303273;28;20478;-89
2023/04/20 05:43:40;;;;;;;2.92;1.08;;;11.80;76.00;;;;;;10322739;28;20929;-89
2023/04/20 05:48:40;;;;;;;3.05;1.33;;;12.20;76.20;;;;;;10315704;28;20034;-88
2023/04/20 05:53:41;;;;;;;1.85;1.17;;;12.60;76.50;;;;;;10333898;28;20023;-88
2023/04/20 05:58:42;;;;;;;1.45;1.00;;;12.30;76.40;;;;;;10319158;28;20101;-90
2023/04/20 06:03:42;;;;;;;1.40;1.00;;;12.10;76.40;;;;;;10312104;28;20033;-87
2023/04/20 06:08:43;;;;;;;1.35;1.00;;;11.80;76.40;;;;;;10318268;28;20108;-89
2023/04/20 06:13:44;;;;;;;2.53;1.17;;;12.70;76.90;;;;;;10317465;28;20049;-89
2023/04/20 06:18:44;;;;;;;1.63;1.05;;;12.80;77.70;;;;;;10317307;28;20398;-87
2023/04/20 06:23:45;;;;;;;1.00;0.85;;;12.50;77.00;;;;;;10319205;28;20034;-86
2023/04/20 06:28:47;;;;;;;1.48;0.93;;;11.80;76.70;;;;;;10320170;28;20093;-89
2023/04/20 06:33:47;;;;;;;2.03;1.40;;;12.80;77.40;;;;;;10320024;28;20018;-88
2023/04/20 06:38:48;;;;;;;2.40;1.30;;;11.70;77.50;;;;;;10315638;28;20521;-87
2023/04/20 06:43:49;;;;;;;2.10;1.00;;;11.70;76.90;;;;;;10320497;28;20042;-88
2023/04/20 06:48:49;;;;;;;1.50;1.00;;;11.70;77.00;;;;;;10325695;28;20056;-86
2023/04/20 06:53:50;;;;;;;3.42;1.17;;;11.70;77.20;;;;;;10320188;28;20056;-86
2023/04/20 06:58:50;;;;;;;3.35;1.27;;;12.40;77.60;;;;;;10324845;28;20042;-86
2023/04/20 07:03:52;;;;;;;1.85;1.20;;;11.70;77.30;;;;;;10324251;28;20121;-86
2023/04/20 07:08:53;;;;;;;3.20;1.27;;;11.70;77.40;;;;;;10323292;28;20460;-87
2023/04/20 07:13:54;;;;;;;2.30;1.48;;;11.70;77.50;;;;;;10321099;28;20042;-87
2023/04/20 07:18:54;;;;;;;1.77;1.40;;;11.70;77.60;;;;;;10323939;28;20022;-86
2023/04/20 07:23:57;;;;;;;1.30;1.17;;;11.70;77.60;;;;;;10321913;28;20034;-86
2023/04/20 07:28:57;;;;;;;2.55;1.40;;;11.60;77.60;;;;;;10322949;28;20072;-87
2023/04/20 07:33:58;;;;;;;3.50;1.73;;;11.60;77.60;;;;;;10319879;28;20122;-87
2023/04/20 07:38:59;;;;;;;2.30;1.40;;;12.70;78.30;;;;;;10324736;28;20026;-86
2023/04/20 07:43:59;;;;;;;1.60;1.27;;;11.60;77.80;;;;;;10340714;28;20633;-87
2023/04/20 07:49:00;;;;;;;1.63;1.20;;;11.60;77.80;;;;;;10327946;28;20034;-87
2023/04/20 07:54:00;;;;;;;1.45;1.30;;;12.20;78.20;;;;;;10321365;28;20026;-86
2023/04/20 07:59:01;;;;;;;2.05;1.48;;;11.70;78.00;;;;;;10328210;28;20490;-86
2023/04/20 08:04:02;;;;;;;2.47;1.50;;;12.80;78.60;;;;;;10328130;28;20562;-87
2023/04/20 08:09:03;;;;;;;5.68;1.35;;;11.70;78.00;;;;;;10321578;28;20622;-85
2023/04/20 08:14:03;;;;;;;2.53;1.50;;;11.70;78.10;;;;;;10322078;28;20027;-88
2023/04/20 08:19:08;;;;;;;2.33;1.40;;;12.20;78.50;;;;;;10318758;28;20113;-88
2023/04/20 08:24:09;;;;;;;2.17;1.48;;;11.70;78.40;;;;;;10320740;28;20498;-88
2023/04/20 08:29:10;;;;;;;3.47;1.40;;;13.10;79.20;;;;;;10318979;28;20038;-88
2023/04/20 08:34:11;;;;;;;2.15;1.30;;;11.80;78.50;;;;;;10323088;28;20030;-88
2023/04/20 08:39:17;;;;;;;2.50;1.58;;;12.00;78.50;;;;;;10320522;28;20066;-88
2023/04/20 08:44:18;;;;;;;5.70;1.23;;;12.40;78.80;;;;;;10321696;28;20039;-88
2023/04/20 08:49:20;;;;;;;2.10;1.23;;;11.90;78.50;;;;;;10320165;28;20026;-88
2023/04/20 08:54:20;;;;;;;1.40;1.20;;;11.90;78.60;;;;;;10323951;28;20101;-86
2023/04/20 08:59:21;;;;;;;3.97;1.70;;;11.90;78.60;;;;;;10318793;28;20030;-84
2023/04/20 09:04:23;;;;;;;2.88;1.50;;;11.90;78.80;;;;;;10321695;28;20022;-86
2023/04/20 09:09:25;;;;;;;2.17;1.50;;;11.90;79.00;;;;;;10322196;28;20026;-86
2023/04/20 09:14:26;;;;;;;3.97;1.65;;;12.00;79.00;;;;;;10321460;28;20010;-86
2023/04/20 09:19:28;;;;;;;2.35;1.50;;;11.90;79.00;;;;;;10304867;28;20034;-88
2023/04/20 09:24:31;;;;;;;2.58;1.38;;;11.90;79.10;;;;;;10316166;28;20037;-87
2023/04/20 09:29:32;;;;;;;2.95;1.40;;;11.90;79.20;;;;;;10343018;28;20030;-88
2023/04/20 09:34:43;;;;;;;3.17;1.80;;;12.10;79.50;;;;;;10325102;28;20541;-87
2023/04/20 09:39:45;;;;;;;4.28;2.22;;;12.00;79.80;;;;;;10323781;28;20027;-87
2023/04/20 09:44:45;;;;;;;6.88;2.08;;;13.00;80.10;;;;;;10326494;28;20038;-87
2023/04/20 09:49:46;;;;;;;7.30;2.00;;;12.00;80.30;;;;;;10318638;28;20026;-87
2023/04/20 09:54:49;;;;;;;2.53;1.83;;;12.00;80.50;;;;;;10319102;28;20022;-84
2023/04/20 09:59:50;;;;;;;5.00;2.30;;;12.80;81.60;;;;;;10316250;28;20030;-86
2023/04/20 10:04:52;;;;;;;4.95;2.47;;;11.70;81.40;;;;;;10315397;28;20468;-87
2023/04/20 10:10:03;;;;;;;3.67;2.58;;;12.50;82.10;;;;;;10323441;28;20033;-86
2023/04/20 10:15:05;;;;;;;6.18;2.58;;;11.90;82.20;;;;;;10323238;28;20536;-86
2023/04/20 10:20:21;;;;;;;8.63;2.53;;;11.90;81.70;;;;;;10313954;28;20677;-86
2023/04/20 10:25:24;;;;;;;6.82;2.30;;;12.00;82.30;;;;;;10317626;28;20046;-87
2023/04/20 10:30:26;;;;;;;4.63;2.35;;;13.00;82.20;;;;;;10317125;28;20126;-85
2023/04/20 10:35:28;;;;;;;4.82;2.42;;;13.10;82.10;;;;;;10317267;28;20089;-87
2023/04/20 10:40:29;;;;;;;3.10;2.53;;;12.30;81.60;;;;;;10318269;28;20030;-85
2023/04/20 10:45:35;;;;;;;5.15;2.28;;;12.30;81.60;;;;;;10333649;28;20037;-85
2023/04/20 10:50:36;;;;;;;4.00;2.35;;;12.30;81.70;;;;;;10314620;28;20068;-85
2023/04/20 10:55:36;;;;;;;4.78;2.38;;;12.40;81.80;;;;;;10316652;28;20094;-86
2023/04/20 11:00:37;;;;;;;4.35;2.22;;;12.40;81.80;;;;;;10314761;28;20034;-85
2023/04/20 11:05:38;;;;;;;4.90;2.90;;;12.40;81.90;;;;;;10317624;28;20026;-85
2023/04/20 11:10:40;;;;;;;2.83;2.15;;;12.40;82.00;;;;;;10321282;28;20121;-87
2023/04/20 11:15:42;;;;;;;3.58;2.55;;;12.50;82.00;;;;;;10332655;28;20500;-85
2023/04/20 11:20:53;;;;;;;4.72;2.55;;;13.60;82.40;;;;;;10315747;28;20022;-86
2023/04/20 11:25:55;;;;;;;4.57;2.28;;;12.60;82.10;;;;;;10332460;28;20022;-86
2023/04/20 11:30:56;;;;;;;3.80;2.45;;;12.60;82.00;;;;;;10319453;28;20038;-85
2023/04/20 11:35:57;;;;;;;3.72;2.35;;;12.60;82.20;;;;;;10317477;28;20455;-87
2023/04/20 11:41:03;;;;;;;3.58;2.65;;;13.90;82.90;;;;;;10317592;28;20616;-84
2023/04/20 11:46:17;;;;;;;;;;;12.70;82.30;;;;;;10316756;28;20022;-85
2023/04/20 11:51:18;;;;;;;6.15;4.40;;;12.80;83.90;;;;;;10316399;28;20407;-88
2023/04/20 11:56:18;;;;;;;8.05;4.88;;;12.70;82.00;;;;;;10317647;28;20026;-86
2023/04/20 12:01:19;;;;;;;13.63;5.85;;;12.40;83.20;;;;;;10319113;28;20023;-87
2023/04/20 12:06:19;;;;;;;11.52;5.82;;;12.40;84.40;;;;;;10317699;28;20030;-88
2023/04/20 12:11:21;;;;;;;10.93;5.90;;;11.70;86.80;;;;;;10316957;28;20109;-86
2023/04/20 12:16:21;;;;;;;12.90;6.22;;;11.30;88.40;;;;;;10317130;28;20023;-87
2023/04/20 12:21:22;;;;;;;11.25;6.38;;;12.10;90.20;;;;;;10317258;28;20550;-88
2023/04/20 12:26:22;;;;;;;11.98;5.95;;;11.50;89.70;;;;;;10327668;28;20441;-87
2023/04/20 12:31:26;;;;;;;9.75;6.13;;;11.50;89.10;;;;;;10317778;28;20130;-90
2023/04/20 12:36:27;;;;;;;12.63;5.80;;;11.40;89.60;;;;;;10325283;28;20023;-91
2023/04/20 12:41:36;;;;;;;11.40;6.13;;;11.40;89.70;;;;;;10334949;28;20038;-93
2023/04/20 12:46:37;;;;;;;11.77;6.68;;;11.70;88.70;;;;;;10332014;28;20636;-94
2023/04/20 12:51:38;;;;;;;12.20;7.00;;;12.40;88.90;;;;;;10341704;28;20041;-91
2023/04/20 12:56:44;;;;;;;12.80;6.05;;;11.40;89.50;;;;;;10333388;28;20024;-91
2023/04/20 13:01:48;;;;;;;11.57;6.55;;;12.40;90.30;;;;;;10339311;28;20045;-90
2023/04/20 13:06:52;;;;;;;12.32;6.60;;;11.40;90.60;;;;;;10350895;28;20134;-91
2023/04/20 13:11:52;;;;;;;10.00;6.22;;;11.20;90.40;;;;;;10332757;28;20031;-91
2023/04/20 13:16:53;;;;;;;8.98;5.97;;;11.50;90.00;;;;;;10333004;28;20019;-90
2023/04/20 13:21:56;;;;;;;11.63;6.55;;;11.60;89.60;;;;;;10328724;28;20033;-91
2023/04/20 13:26:57;;;;;;;17.35;6.72;;;12.30;90.10;;;;;;10327750;28;20417;-91
2023/04/20 13:31:58;;;;;;;10.82;6.15;;;11.70;90.20;;;;;;10325614;28;20022;-91
2023/04/20 13:36:59;;;;;;;12.93;6.25;;;12.40;90.50;;;;;;10325366;28;20663;-90
2023/04/20 13:42:00;;;;;;;12.02;6.10;;;13.00;90.70;;;;;;10323810;28;20482;-88
2023/04/20 13:47:01;;;;;;;10.77;7.32;;;12.30;89.80;;;;;;10324946;28;20565;-90
2023/04/20 13:52:02;;;;;;;10.73;6.20;;;12.90;89.00;;;;;;10321359;28;20027;-91
2023/04/20 13:57:02;;;;;;;7.63;5.47;;;12.60;87.60;;;;;;10323081;28;20030;-92
2023/04/20 14:02:03;;;;;;;11.50;5.80;;;13.60;86.40;;;;;;10324575;28;20026;-88
2023/04/20 14:07:04;;;;;;;10.55;6.25;;;12.90;86.00;;;;;;10321279;28;20059;-90
2023/04/20 14:12:06;;;;;;;12.27;6.22;;;13.10;85.50;;;;;;10323983;28;20117;-90
2023/04/20 14:17:10;;;;;;;10.27;6.50;;;13.20;84.50;;;;;;10314034;28;20030;-87
2023/04/20 14:22:10;;;;;;;9.77;5.65;;;13.00;84.70;;;;;;10338585;28;20058;-89
2023/04/20 14:27:11;;;;;;;9.98;5.47;;;13.20;86.70;;;;;;10322537;28;20113;-91
2023/04/20 14:32:12;;;;;;;9.52;5.55;;;12.90;87.40;;;;;;10316387;28;20057;-91
2023/04/20 14:37:12;;;;;;;8.75;5.03;;;13.50;87.20;;;;;;10310070;28;20422;-90
2023/04/20 14:42:14;;;;;;;7.90;4.88;;;12.90;85.80;;;;;;10318273;28;20054;-89
2023/04/20 14:47:15;;;;;;;9.63;4.72;;;14.40;84.40;;;;;;10317163;28;20030;-90
2023/04/20 14:52:17;;;;;;;7.60;5.15;;;14.50;82.50;;;;;;10321644;28;20023;-91
2023/04/20 14:57:17;;;;;;;7.95;4.75;;;14.30;80.70;;;;;;10316514;28;20027;-90
2023/04/20 15:02:18;;;;;;;6.93;4.78;;;14.20;80.70;;;;;;10315400;28;20632;-89
2023/04/20 15:07:19;;;;;;;7.38;5.03;;;13.40;79.90;;;;;;10315935;28;20402;-90
2023/04/20 15:12:19;;;;;;;9.43;5.32;;;14.20;80.80;;;;;;10310460;28;20442;-90
2023/04/20 15:17:21;;;;;;;7.82;4.55;;;13.40;81.20;;;;;;10323091;28;20018;-90
2023/04/20 15:22:22;;;;;;;8.15;5.22;;;13.50;82.10;;;;;;10315288;28;20422;-91
2023/04/20 15:27:22;;;;;;;8.25;4.80;;;12.50;81.70;;;;;;10318963;28;20014;-91
2023/04/20 15:32:24;;;;;;;9.30;4.80;;;12.70;81.40;;;;;;10305441;28;20033;-89
2023/04/20 15:37:24;;;;;;;9.10;5.10;;;12.90;80.90;;;;;;10312522;28;20420;-89
2023/04/20 15:42:26;;;;;;;7.20;4.43;;;12.70;80.50;;;;;;10317838;28;20081;-88
2023/04/20 15:47:27;;;;;;;8.00;4.25;;;13.20;82.90;;;;;;10313056;28;20014;-89
2023/04/20 15:52:29;;;;;;;8.07;4.50;;;13.50;81.70;;;;;;10300187;28;20022;-89
2023/04/20 15:57:33;;;;;;;7.10;4.43;;;14.50;81.50;;;;;;10316715;28;20027;-88
2023/04/20 16:02:38;;;;;;;5.53;3.70;;;13.90;80.70;;;;;;10329378;28;20417;-89
2023/04/20 16:07:39;;;;;;;6.53;4.18;;;14.50;81.00;;;;;;10324159;28;20542;-87
2023/04/20 16:12:39;;;;;;;6.95;3.90;;;14.90;81.20;;;;;;10322439;28;20027;-88
2023/04/20 16:17:40;;;;;;;5.80;3.65;;;14.10;80.70;;;;;;10324670;28;20022;-88
2023/04/20 16:22:41;;;;;;;4.82;3.40;;;15.20;81.30;;;;;;10322618;28;20026;-91
2023/04/20 16:27:42;;;;;;;6.25;3.45;;;14.60;81.00;;;;;;10324904;28;20022;-90
2023/04/20 16:32:43;;;;;;;4.40;3.10;;;14.20;80.90;;;;;;10312705;28;20025;-89
2023/04/20 16:37:44;;;;;;;10.25;5.18;;;15.00;81.70;;;;;;10325449;28;20036;-89
2023/04/20 16:42:45;;;;;;;8.60;5.15;;;14.50;81.30;;;;;;10325638;28;20030;-90
2023/04/20 16:47:46;;;;;;;9.18;5.20;;;14.20;81.20;;;;;;10324370;28;20037;-89
2023/04/20 16:52:48;;;;;;;8.52;5.80;;;14.00;82.20;;;;;;10327815;28;20022;-90
2023/04/20 16:57:48;;;;;;;11.52;5.82;;;13.00;82.40;;;;;;10317462;28;20030;-90
2023/04/20 17:02:49;;;;;;;10.18;5.68;;;14.00;83.20;;;;;;10324970;28;20076;-90
2023/04/20 17:07:50;;;;;;;11.40;5.68;;;12.80;83.30;;;;;;10322212;28;20053;-88
2023/04/20 17:12:50;;;;;;;7.60;5.28;;;12.90;84.20;;;;;;10319058;28;20019;-87
2023/04/20 17:17:51;;;;;;;7.82;4.82;;;12.50;84.90;;;;;;10318460;28;20036;-87
2023/04/20 17:22:51;;;;;;;15.75;5.65;;;12.70;84.80;;;;;;10323714;28;20046;-89
2023/04/20 17:27:52;;;;;;;7.53;4.82;;;12.90;85.00;;;;;;10323403;28;20041;-88
2023/04/20 17:32:53;;;;;;;8.93;5.30;;;13.00;85.10;;;;;;10323926;28;20146;-88
2023/04/20 17:37:53;;;;;;;8.18;5.38;;;13.40;85.20;;;;;;10319576;28;20026;-90
2023/04/20 17:42:54;;;;;;;10.32;5.28;;;13.20;86.50;;;;;;10321589;28;20609;-89
2023/04/20 17:47:55;;;;;;;12.95;5.22;;;13.90;87.70;;;;;;10310447;28;20553;-88
2023/04/20 17:52:55;;;;;;;9.82;5.38;;;13.70;87.00;;;;;;10322751;28;20018;-89
2023/04/20 17:57:56;;;;;;;7.85;4.70;;;13.90;86.80;;;;;;10322294;28;20018;-91
2023/04/20 18:02:58;;;;;;;8.52;5.20;;;14.10;86.70;;;;;;10321483;28;20037;-89
2023/04/20 18:07:59;;;;;;;10.52;4.60;;;13.30;86.30;;;;;;10328723;28;20410;-89
2023/04/20 18:12:59;;;;;;;7.32;4.88;;;13.30;86.30;;;;;;10307688;28;20038;-89
2023/04/20 18:18:00;;;;;;;7.80;4.57;;;13.40;86.20;;;;;;10326505;28;20486;-89
2023/04/20 18:23:02;;;;;;;7.50;4.40;;;13.30;86.20;;;;;;10322521;28;20529;-90
2023/04/20 18:28:03;;;;;;;6.18;4.18;;;13.40;86.30;;;;;;10323587;28;20034;-90
2023/04/20 18:33:03;;;;;;;8.13;5.10;;;13.40;86.20;;;;;;10328324;28;20105;-89
2023/04/20 18:38:06;;;;;;;10.27;4.57;;;13.80;86.50;;;;;;10327229;28;20157;-89
2023/04/20 18:43:07;;;;;;;7.65;4.30;;;13.50;86.40;;;;;;10309924;28;20112;-89
2023/04/20 18:48:07;;;;;;;7.20;3.85;;;14.10;86.80;;;;;;10325705;28;20754;-90
2023/04/20 18:53:08;;;;;;;5.10;3.80;;;14.20;86.90;;;;;;10320462;28;20117;-89
2023/04/20 18:58:08;;;;;;;5.80;3.70;;;13.30;86.50;;;;;;10320819;28;20030;-90
2023/04/20 19:03:09;;;;;;;4.65;3.28;;;13.50;86.70;;;;;;10310191;28;20030;-89
2023/04/20 19:08:10;;;;;;;6.28;3.95;;;13.30;86.50;;;;;;10327510;28;20467;-89
2023/04/20 19:13:11;;;;;;;6.60;3.65;;;13.30;86.60;;;;;;10327174;28;20026;-89
2023/04/20 19:18:11;;;;;;;5.22;3.50;;;13.30;86.70;;;;;;10326882;28;20026;-89
2023/04/20 19:23:12;;;;;;;5.57;3.33;;;13.30;86.80;;;;;;10328133;28;20055;-89
2023/04/20 19:28:12;;;;;;;5.40;3.70;;;13.60;86.90;;;;;;10321143;28;20038;-90
2023/04/20 19:33:13;;;;;;;6.97;3.50;;;13.70;87.10;;;;;;10338969;28;20024;-91
2023/04/20 19:38:14;;;;;;;5.95;3.60;;;13.30;87.10;;;;;;10340512;28;20030;-89
2023/04/20 19:43:15;;;;;;;7.25;4.00;;;14.00;87.50;;;;;;10332701;28;20034;-89
2023/04/20 19:48:16;;;;;;;6.88;3.65;;;13.30;87.20;;;;;;10333470;28;20498;-89
2023/04/20 19:53:18;;;;;;;6.72;3.72;;;13.50;87.40;;;;;;10337258;28;20042;-89
2023/04/20 19:58:18;;;;;;;4.45;3.10;;;14.00;87.70;;;;;;10336842;28;20106;-91
2023/04/20 20:03:19;;;;;;;8.82;3.95;;;13.60;87.60;;;;;;10334163;28;20018;-89
2023/04/20 20:08:20;;;;;;;5.38;3.40;;;14.30;88.10;;;;;;10332196;28;20054;-89
2023/04/20 20:13:20;;;;;;;5.35;2.97;;;13.10;87.60;;;;;;10344139;28;20023;-88
2023/04/20 20:18:22;;;;;;;4.45;3.40;;;13.70;88.00;;;;;;10330612;28;20706;-89
2023/04/20 20:23:22;;;;;;;5.10;3.40;;;13.10;87.80;;;;;;10324366;28;20042;-89
2023/04/20 20:28:23;;;;;;;6.43;3.28;;;13.10;87.80;;;;;;10326539;28;20061;-88
2023/04/20 20:33:24;;;;;;;4.18;3.03;;;13.10;87.80;;;;;;10334947;28;20037;-89
2023/04/20 20:38:25;;;;;;;6.35;3.88;;;13.50;88.10;;;;;;10334477;28;20026;-88
2023/04/20 20:43:27;;;;;;;4.55;3.50;;;13.00;88.00;;;;;;10327582;28;20034;-88
2023/04/20 20:48:27;;;;;;;4.43;3.15;;;13.10;88.10;;;;;;10323520;28;20117;-88
2023/04/20 20:53:28;;;;;;;5.05;3.35;;;14.10;88.80;;;;;;10302773;28;20039;-89
2023/04/20 20:58:29;;;;;;;4.63;2.85;;;13.80;88.60;;;;;;10318231;28;20117;-88
2023/04/20 21:03:31;;;;;;;5.93;3.50;;;13.80;88.70;;;;;;10327484;28;20150;-88
2023/04/20 21:08:32;;;;;;;6.35;3.60;;;13.00;88.40;;;;;;10334419;28;20121;-87
2023/04/20 21:13:33;;;;;;;5.05;3.10;;;13.00;89.00;;;;;;10332562;28;20068;-89
2023/04/20 21:18:34;;;;;;;3.95;2.95;;;13.80;89.00;;;;;;10329256;28;20026;-87
2023/04/20 21:23:35;;;;;;;4.80;3.28;;;13.80;89.00;;;;;;10308949;28;20038;-87
2023/04/20 21:28:36;;;;;;;6.57;3.65;;;13.70;88.90;;;;;;10329495;28;20026;-90
2023/04/20 21:33:36;;;;;;;5.78;3.40;;;12.90;88.60;;;;;;10327395;28;20023;-90
2023/04/20 21:38:37;;;;;;;5.85;3.40;;;12.90;88.60;;;;;;10323290;28;20593;-89
2023/04/20 21:43:37;;;;;;;4.57;2.90;;;12.80;88.60;;;;;;10322075;28;20038;-90
2023/04/20 21:48:38;;;;;;;5.05;3.15;;;13.60;89.00;;;;;;10320802;28;20045;-88
2023/04/20 21:53:38;;;;;;;5.13;3.40;;;13.00;88.60;;;;;;10324878;28;20080;-89
2023/04/20 21:58:39;;;;;;;4.97;3.55;;;12.80;88.60;;;;;;10316785;28;20041;-88
2023/04/20 22:03:40;;;;;;;3.95;3.00;;;12.90;88.70;;;;;;10325886;28;20049;-89
2023/04/20 22:08:41;;;;;;;4.97;2.90;;;13.50;89.00;;;;;;10326787;28;20030;-88
2023/04/20 22:13:42;;;;;;;4.80;2.90;;;13.20;88.90;;;;;;10324921;28;20041;-89
2023/04/20 22:18:43;;;;;;;4.55;3.20;;;13.60;89.20;;;;;;10342894;28;20026;-89
2023/04/20 22:23:44;;;;;;;5.78;3.70;;;13.40;89.20;;;;;;10324641;28;20394;-89
2023/04/20 22:28:45;;;;;;;9.38;3.40;;;12.70;88.90;;;;;;10329868;28;20026;-89
2023/04/20 22:33:45;;;;;;;5.47;2.97;;;12.70;88.90;;;;;;10323559;28;20514;-89
2023/04/20 22:38:46;;;;;;;5.30;3.05;;;13.60;89.40;;;;;;10328569;28;20018;-89
2023/04/20 22:43:47;;;;;;;4.60;3.35;;;13.70;89.50;;;;;;10319065;28;20019;-89
2023/04/20 22:48:47;;;;;;;3.97;3.03;;;13.20;89.30;;;;;;10322541;28;20601;-89
2023/04/20 22:53:48;;;;;;;6.97;3.55;;;13.20;89.30;;;;;;10323778;28;20026;-89
2023/04/20 22:58:50;;;;;;;4.50;3.05;;;12.70;89.00;;;;;;10339687;28;20029;-89
2023/04/20 23:03:50;;;;;;;4.78;3.60;;;13.70;89.60;;;;;;10323427;28;20026;-89
2023/04/20 23:08:51;;;;;;;4.85;3.25;;;13.30;89.40;;;;;;10316042;28;20042;-92
2023/04/20 23:13:52;;;;;;;5.05;3.25;;;13.80;89.70;;;;;;10321904;28;20030;-89
2023/04/20 23:18:52;;;;;;;4.82;3.60;;;13.50;89.60;;;;;;10326464;28;20033;-89
2023/04/20 23:23:56;;;;;;;5.75;3.90;;;13.40;89.60;;;;;;10319103;28;20502;-90
2023/04/20 23:28:56;;;;;;;5.65;3.38;;;13.10;89.50;;;;;;10310579;28;20113;-89
2023/04/20 23:33:57;;;;;;;4.65;3.47;;;13.50;89.70;;;;;;10323137;28;20096;-89
2023/04/20 23:38:58;;;;;;;5.70;3.70;;;13.10;89.60;;;;;;10321023;28;20779;-89
2023/04/20 23:43:58;;;;;;;8.05;4.50;;;12.60;89.50;;;;;;10316357;28;20038;-88
2023/04/20 23:48:59;;;;;;;5.63;3.92;;;13.00;89.80;;;;;;10318374;28;20433;-89
2023/04/20 23:54:00;;;;;;;7.50;4.70;;;12.70;89.70;;;;;;10311803;28;20029;-89
2023/04/20 23:59:00;;;;;;;7.60;4.65;;;12.60;89.80;;;;;;10321905;28;20038;-89
